Terminal Aerodrome Forecast
Issued by NWS Wilmington, NC

Home | Current Version | Previous Version | Text Only | Print | Product List | Glossary On
Versions: 1 2 3 4 5 6 7 8 9 10 11 12 13 14
000
FTUS42 KILM 311720
TAFLBT
TAF
KLBT 311720Z 3118/0118 06005KT P6SM SCT060 BKN090
     FM312000 VRB04KT 6SM -SHRA BKN050
     FM312300 VRB03KT P6SM VCSH BKN070
     FM010900 VRB02KT 3SM BR SCT006
     FM011300 02004KT P6SM SCT060=

USA.gov is the U.S. government's official web portal to all federal, state and local government web resources and services.